Time;durP1;ratioP1;P1;durP2;ratioP2;P2;SDS_P1;SDS_P2;PMS_P1;PMS_P2;Temp;Humidity;BMP_temperature;BMP_pressure;BME280_temperature;BME280_humidity;BME280_pressure;Samples;Min_cycle;Max_cycle;Signal;HPM_P1;HPM_P2
2022/01/12 00:00:20;;;;;;;8.68;7.75;;;3.00;99.90;;;;;;5075267;28;20227;-71
2022/01/12 00:02:46;;;;;;;7.25;6.07;;;3.10;99.90;;;;;;5074528;28;20203;-72
2022/01/12 00:05:14;;;;;;;9.48;8.35;;;3.00;99.90;;;;;;5075526;28;20282;-72
2022/01/12 00:07:47;;;;;;;8.30;7.32;;;3.10;99.90;;;;;;5075843;28;20220;-72
2022/01/12 00:10:14;;;;;;;10.90;8.27;;;3.10;99.90;;;;;;5076254;28;20236;-72
2022/01/12 00:12:41;;;;;;;10.70;8.68;;;3.10;99.90;;;;;;5074674;28;20196;-72
2022/01/12 00:15:08;;;;;;;9.77;7.80;;;3.00;99.90;;;;;;5076010;28;20203;-72
2022/01/12 00:17:34;;;;;;;10.93;9.48;;;3.00;99.90;;;;;;5076267;28;20202;-72
2022/01/12 00:20:02;;;;;;;11.60;9.00;;;3.00;99.90;;;;;;5075001;28;20196;-72
2022/01/12 00:22:29;;;;;;;8.77;7.88;;;2.90;99.90;;;;;;5075848;28;20211;-72
2022/01/12 00:33:13;;;;;;;8.57;7.68;;;2.60;99.90;;;;;;5076232;28;20176;-71
2022/01/12 00:35:41;;;;;;;9.38;7.78;;;2.50;99.90;;;;;;5076259;28;20647;-72
2022/01/12 00:38:08;;;;;;;11.40;8.35;;;2.50;99.90;;;;;;5073954;28;20196;-72
2022/01/12 00:40:43;;;;;;;11.77;8.63;;;2.40;99.90;;;;;;5074202;28;20230;-71
2022/01/12 00:43:11;;;;;;;10.07;7.50;;;2.40;99.90;;;;;;5073789;28;20196;-71
2022/01/12 00:45:44;;;;;;;10.13;7.60;;;2.40;99.90;;;;;;5074475;28;20204;-71
2022/01/12 00:48:14;;;;;;;9.80;7.35;;;2.30;99.90;;;;;;5074535;28;20196;-71
2022/01/12 00:50:42;;;;;;;11.75;8.50;;;2.20;99.90;;;;;;5074550;28;20739;-72
2022/01/12 00:53:09;;;;;;;9.70;8.05;;;2.20;99.90;;;;;;5074742;28;20252;-72
2022/01/12 00:55:39;;;;;;;9.13;7.55;;;2.10;99.90;;;;;;5074513;28;20560;-71
2022/01/12 00:58:05;;;;;;;9.02;8.07;;;2.10;99.90;;;;;;5074653;28;20615;-72
2022/01/12 01:00:32;;;;;;;7.88;7.07;;;2.10;99.90;;;;;;5076121;28;20224;-72
2022/01/12 01:03:00;;;;;;;11.30;8.50;;;2.00;99.90;;;;;;5076024;28;20571;-72
2022/01/12 01:05:27;;;;;;;11.70;7.85;;;2.00;99.90;;;;;;5076284;28;20610;-72
2022/01/12 01:07:54;;;;;;;10.10;8.65;;;1.90;99.90;;;;;;5076511;28;20228;-70
2022/01/12 01:12:59;;;;;;;8.55;7.70;;;1.90;99.90;;;;;;5082226;28;20263;-71
2022/01/12 01:15:52;;;;;;;12.88;7.80;;;1.90;99.90;;;;;;5080678;28;20204;-72
2022/01/12 01:26:40;;;;;;;8.70;7.40;;;1.80;99.90;;;;;;5079195;28;20278;-72
2022/01/12 01:29:07;;;;;;;9.43;8.05;;;1.80;99.90;;;;;;5078970;28;20204;-71
2022/01/12 01:31:35;;;;;;;9.63;8.02;;;1.70;99.90;;;;;;5078825;28;20666;-72
2022/01/12 01:34:10;;;;;;;9.45;7.32;;;1.70;99.90;;;;;;5078813;28;20208;-71
2022/01/12 01:36:40;;;;;;;8.65;7.35;;;1.60;99.90;;;;;;5078423;28;20260;-72
2022/01/12 01:39:08;;;;;;;8.02;6.10;;;1.60;99.90;;;;;;5078582;28;20211;-71
2022/01/12 01:41:38;;;;;;;9.27;6.93;;;1.60;99.90;;;;;;5078281;28;20227;-72
2022/01/12 01:44:30;;;;;;;6.70;5.95;;;1.60;99.90;;;;;;5076775;28;20663;-72
2022/01/12 01:55:09;;;;;;;8.15;5.78;;;1.60;99.90;;;;;;5077505;28;20199;-72
2022/01/12 01:57:37;;;;;;;17.20;6.90;;;1.60;99.90;;;;;;5077541;28;20550;-72
2022/01/12 02:00:12;;;;;;;11.10;8.30;;;1.50;99.90;;;;;;5077591;28;20204;-72
2022/01/12 02:02:40;;;;;;;10.93;7.85;;;1.50;99.90;;;;;;5076845;28;20196;-73
2022/01/12 02:05:07;;;;;;;9.10;8.05;;;1.50;99.90;;;;;;5076199;28;20212;-73
2022/01/12 02:07:34;;;;;;;14.68;9.45;;;1.40;99.90;;;;;;5076407;28;20216;-73
2022/01/12 02:10:00;;;;;;;10.73;8.38;;;1.40;99.90;;;;;;5075241;28;20200;-73
2022/01/12 02:12:28;;;;;;;12.63;7.75;;;1.30;99.90;;;;;;5076133;28;20203;-73
2022/01/12 02:14:56;;;;;;;11.18;8.02;;;1.10;99.90;;;;;;5076458;28;20204;-73
2022/01/12 02:17:34;;;;;;;12.05;8.77;;;1.00;99.90;;;;;;5077929;28;20269;-73
2022/01/12 02:20:13;;;;;;;12.55;8.70;;;1.10;99.90;;;;;;5076362;28;20565;-73
2022/01/12 02:36:31;;;;;;;10.60;8.13;;;0.90;99.90;;;;;;5076568;28;20206;-73
2022/01/12 02:41:44;;;;;;;9.40;7.82;;;0.80;99.90;;;;;;5076388;28;20212;-72
2022/01/12 02:55:06;;;;;;;9.57;7.80;;;0.70;99.90;;;;;;5075839;28;20210;-72
2022/01/12 02:57:33;;;;;;;16.27;8.85;;;0.70;99.90;;;;;;5077037;28;20211;-73
2022/01/12 03:00:12;;;;;;;10.27;8.50;;;0.80;99.90;;;;;;5076762;28;20230;-72
2022/01/12 03:02:39;;;;;;;11.90;7.85;;;0.80;99.90;;;;;;5076620;28;20229;-72
2022/01/12 03:07:43;;;;;;;12.93;8.38;;;0.70;99.90;;;;;;5075976;28;20223;-73
2022/01/12 03:10:11;;;;;;;11.85;9.50;;;0.70;99.90;;;;;;5074326;28;20202;-72
2022/01/12 03:12:40;;;;;;;10.77;8.13;;;0.60;99.90;;;;;;5073987;28;20725;-72
2022/01/12 03:15:07;;;;;;;13.50;8.75;;;0.60;99.90;;;;;;5075539;28;20214;-73
2022/01/12 03:17:34;;;;;;;11.40;8.32;;;0.60;99.90;;;;;;5075979;28;20260;-73
2022/01/12 03:20:03;;;;;;;16.40;9.68;;;0.50;99.90;;;;;;5075072;28;20287;-72
2022/01/12 03:22:29;;;;;;;11.27;7.82;;;0.50;99.90;;;;;;5074902;28;20587;-72
2022/01/12 03:24:56;;;;;;;11.75;8.60;;;0.60;99.90;;;;;;5075142;28;20333;-72
2022/01/12 03:27:26;;;;;;;14.35;8.60;;;0.60;99.90;;;;;;5074951;28;20214;-72
2022/01/12 03:29:56;;;;;;;14.20;8.32;;;0.60;99.90;;;;;;5074918;28;20203;-75
2022/01/12 03:32:39;;;;;;;10.50;8.23;;;0.50;99.90;;;;;;5075473;28;20229;-72
2022/01/12 03:35:11;;;;;;;9.45;7.65;;;0.50;99.90;;;;;;5072849;28;20612;-73
2022/01/12 03:37:53;;;;;;;9.75;8.02;;;0.50;99.90;;;;;;5075218;28;20204;-72
2022/01/12 03:40:21;;;;;;;9.98;7.57;;;0.50;99.90;;;;;;5073957;28;20200;-73
2022/01/12 03:42:49;;;;;;;9.63;8.05;;;0.40;99.90;;;;;;5075032;28;20219;-72
2022/01/12 03:45:16;;;;;;;9.73;7.72;;;0.40;99.90;;;;;;5075031;28;20192;-72
2022/01/12 03:47:42;;;;;;;10.20;7.80;;;0.40;99.90;;;;;;5073502;28;20670;-72
2022/01/12 03:50:09;;;;;;;9.77;8.05;;;0.40;99.90;;;;;;5074808;28;20202;-72
2022/01/12 03:52:35;;;;;;;9.68;7.57;;;0.30;99.90;;;;;;5074437;28;20596;-72
2022/01/12 03:55:02;;;;;;;8.05;7.05;;;0.30;99.90;;;;;;5075109;28;20237;-72
2022/01/12 03:57:29;;;;;;;9.02;7.70;;;0.30;99.90;;;;;;5073711;28;20651;-72
2022/01/12 03:59:56;;;;;;;12.27;8.75;;;0.30;99.90;;;;;;5074804;28;20200;-72
2022/01/12 04:02:24;;;;;;;8.90;6.60;;;0.30;99.90;;;;;;5075066;28;20227;-72
2022/01/12 04:10:27;;;;;;;8.32;6.80;;;0.40;99.90;;;;;;5074991;28;20180;-72
2022/01/12 04:12:53;;;;;;;8.15;7.35;;;0.50;99.90;;;;;;5074524;28;20200;-72
2022/01/12 04:15:21;;;;;;;11.18;8.15;;;0.40;99.90;;;;;;5073397;28;20200;-72
2022/01/12 04:17:47;;;;;;;8.68;7.65;;;0.30;99.90;;;;;;5076822;28;20210;-72
2022/01/12 04:20:16;;;;;;;11.48;8.63;;;0.30;99.90;;;;;;5075794;28;20206;-72
2022/01/12 04:25:28;;;;;;;10.77;8.13;;;0.30;99.90;;;;;;5079735;28;20238;-72
2022/01/12 04:28:00;;;;;;;11.75;8.70;;;0.30;99.90;;;;;;5078958;28;20275;-73
2022/01/12 04:30:31;;;;;;;11.00;8.68;;;0.30;99.90;;;;;;5080532;28;20199;-72
2022/01/12 04:32:57;;;;;;;11.93;8.30;;;0.30;99.90;;;;;;5075780;28;20241;-72
2022/01/12 04:35:29;;;;;;;12.63;8.88;;;0.40;99.90;;;;;;5076301;28;20264;-72
2022/01/12 04:37:58;;;;;;;13.57;9.45;;;0.40;99.90;;;;;;5076562;28;20211;-72
2022/01/12 04:40:25;;;;;;;11.35;9.18;;;0.40;99.90;;;;;;5076929;28;20192;-72
2022/01/12 04:42:56;;;;;;;13.63;8.30;;;0.50;99.90;;;;;;5087619;28;20246;-72
2022/01/12 04:50:21;;;;;;;8.70;6.57;;;0.50;99.90;;;;;;5081396;28;20211;-72
2022/01/12 04:52:48;;;;;;;8.35;6.10;;;0.60;99.90;;;;;;5079367;28;20232;-72
2022/01/12 04:55:14;;;;;;;8.60;6.63;;;0.50;99.90;;;;;;5080355;28;20226;-72
2022/01/12 04:57:41;;;;;;;9.25;7.50;;;0.50;99.90;;;;;;5080870;28;20337;-72
2022/01/12 05:00:16;;;;;;;10.20;7.22;;;0.50;99.90;;;;;;5080090;28;20257;-72
2022/01/12 05:08:35;;;;;;;8.98;5.95;;;0.40;99.90;;;;;;5077635;28;20176;-73
2022/01/12 05:13:49;;;;;;;8.52;6.70;;;0.30;99.90;;;;;;5078462;28;20188;-73
2022/01/12 05:16:17;;;;;;;9.02;6.90;;;0.30;99.90;;;;;;5076628;28;20200;-72
2022/01/12 05:18:45;;;;;;;14.63;6.05;;;0.30;99.90;;;;;;5078273;28;20203;-72
2022/01/12 05:21:12;;;;;;;10.25;5.97;;;0.30;99.90;;;;;;5077691;28;20219;-73
2022/01/12 05:23:39;;;;;;;8.07;6.68;;;0.30;99.90;;;;;;5076315;28;20655;-73
2022/01/12 05:26:06;;;;;;;7.72;6.03;;;0.30;99.90;;;;;;5078985;28;20222;-73
2022/01/12 05:28:34;;;;;;;9.85;6.85;;;0.20;99.90;;;;;;5077571;28;20196;-73
2022/01/12 05:31:03;;;;;;;7.35;6.32;;;0.30;99.90;;;;;;5077724;28;20199;-73
2022/01/12 05:33:30;;;;;;;7.18;6.28;;;0.30;99.90;;;;;;5078669;28;20274;-73
2022/01/12 05:35:59;;;;;;;8.35;6.47;;;0.20;99.90;;;;;;5077676;28;20230;-73
2022/01/12 05:38:26;;;;;;;10.25;7.38;;;0.20;99.90;;;;;;5077175;28;20196;-73
2022/01/12 05:40:56;;;;;;;9.25;7.30;;;0.20;99.90;;;;;;5080494;28;20192;-73
2022/01/12 05:43:28;;;;;;;8.55;7.35;;;0.20;99.90;;;;;;5078164;28;20195;-73
2022/01/12 05:46:00;;;;;;;8.18;6.90;;;0.10;99.90;;;;;;5077067;28;20231;-72
2022/01/12 05:51:12;;;;;;;10.10;7.88;;;0.10;99.90;;;;;;5077524;28;20209;-72
2022/01/12 05:53:42;;;;;;;9.60;7.13;;;0.10;99.90;;;;;;5077761;28;20203;-72
2022/01/12 05:56:09;;;;;;;19.83;7.97;;;0.10;99.90;;;;;;5077060;28;20188;-73
2022/01/12 05:58:37;;;;;;;10.05;6.85;;;0.00;99.90;;;;;;5076648;28;20246;-71
2022/01/12 06:01:03;;;;;;;12.25;6.75;;;0.00;99.90;;;;;;5077160;28;20200;-72
2022/01/12 06:03:31;;;;;;;12.43;7.78;;;-0.10;99.90;;;;;;5077122;28;20722;-71
2022/01/12 06:05:58;;;;;;;13.23;7.95;;;-0.10;99.90;;;;;;5076049;28;20306;-71
2022/01/12 06:08:25;;;;;;;10.18;7.75;;;-0.10;99.90;;;;;;5077271;28;20192;-71
2022/01/12 06:10:51;;;;;;;10.38;8.00;;;-0.20;99.90;;;;;;5079857;28;20203;-72
2022/01/12 06:13:19;;;;;;;12.27;8.85;;;-0.20;99.90;;;;;;5076498;28;20789;-72
2022/01/12 06:15:46;;;;;;;14.40;9.32;;;-0.30;99.90;;;;;;5077447;28;20204;-72
2022/01/12 06:18:12;;;;;;;15.60;8.98;;;-0.20;99.90;;;;;;5076510;28;20199;-72
2022/01/12 06:20:39;;;;;;;12.68;7.90;;;-0.20;99.90;;;;;;5076544;28;20207;-72
2022/01/12 06:23:09;;;;;;;10.48;8.15;;;-0.30;99.90;;;;;;5076445;28;20269;-72
2022/01/12 06:25:35;;;;;;;14.77;9.18;;;-0.40;99.90;;;;;;5081035;28;20200;-72
2022/01/12 06:33:32;;;;;;;82.10;32.92;;;-0.30;99.90;;;;;;5076248;28;20754;-71
2022/01/12 06:35:59;;;;;;;85.10;36.67;;;-0.30;99.90;;;;;;5076710;28;20211;-71
2022/01/12 06:38:25;;;;;;;270.70;90.63;;;-0.40;99.90;;;;;;5076459;28;20204;-72
2022/01/12 06:40:52;;;;;;;78.05;31.92;;;-0.40;99.90;;;;;;5076359;28;20590;-72
2022/01/12 06:43:18;;;;;;;36.88;15.27;;;-0.50;99.90;;;;;;5075402;28;20273;-72
2022/01/12 06:45:45;;;;;;;21.42;13.82;;;-0.50;99.90;;;;;;5076222;28;20211;-72
2022/01/12 06:48:11;;;;;;;17.55;10.60;;;-0.50;99.90;;;;;;5076418;28;20200;-73
2022/01/12 06:50:38;;;;;;;17.80;12.02;;;-0.50;99.90;;;;;;5075605;28;20200;-73
2022/01/12 06:53:04;;;;;;;16.90;9.02;;;-0.50;99.90;;;;;;5075896;28;20235;-73
2022/01/12 06:55:31;;;;;;;16.63;10.27;;;-0.40;99.90;;;;;;5077209;28;20216;-72
2022/01/12 06:57:57;;;;;;;15.43;10.88;;;-0.40;99.90;;;;;;5077674;28;20214;-73
2022/01/12 07:00:23;;;;;;;17.90;9.93;;;-0.40;99.90;;;;;;5075843;28;20207;-72
2022/01/12 07:02:50;;;;;;;17.20;10.15;;;-0.40;99.90;;;;;;5076579;28;20216;-72
2022/01/12 07:05:16;;;;;;;14.57;10.18;;;-0.40;99.90;;;;;;5076057;28;20879;-72
2022/01/12 07:07:43;;;;;;;15.48;10.60;;;-0.30;99.90;;;;;;5076078;28;20223;-72
2022/01/12 07:10:09;;;;;;;13.65;10.02;;;-0.40;99.90;;;;;;5075798;28;20716;-71
2022/01/12 07:12:36;;;;;;;13.65;9.48;;;-0.30;99.90;;;;;;5076070;28;20199;-70
2022/01/12 07:15:05;;;;;;;14.88;9.60;;;-0.30;99.90;;;;;;5077947;28;20204;-72
2022/01/12 07:17:32;;;;;;;14.50;9.30;;;-0.30;99.90;;;;;;5079397;28;20286;-72
2022/01/12 07:19:58;;;;;;;13.45;9.18;;;-0.20;99.90;;;;;;5077810;28;20196;-70
2022/01/12 07:22:25;;;;;;;12.57;9.32;;;-0.20;99.90;;;;;;5079353;28;20306;-72
2022/01/12 07:24:51;;;;;;;13.50;8.77;;;-0.20;99.90;;;;;;5080227;28;20268;-72
2022/01/12 07:27:18;;;;;;;10.85;9.35;;;-0.20;99.90;;;;;;5081239;28;20255;-72
2022/01/12 07:29:44;;;;;;;11.82;9.13;;;-0.10;99.90;;;;;;5077868;28;20533;-72
2022/01/12 07:32:11;;;;;;;17.25;10.38;;;-0.10;99.90;;;;;;5076386;28;20210;-72
2022/01/12 07:34:38;;;;;;;11.20;8.77;;;0.00;99.90;;;;;;5076506;28;20200;-72
2022/01/12 07:37:05;;;;;;;17.98;11.88;;;0.00;99.90;;;;;;5076720;28;20200;-72
2022/01/12 07:39:32;;;;;;;12.45;10.80;;;0.00;99.90;;;;;;5077834;28;20233;-72
2022/01/12 07:41:58;;;;;;;12.52;9.43;;;0.10;99.90;;;;;;5077773;28;20215;-72
2022/01/12 07:44:25;;;;;;;14.52;9.88;;;0.10;99.90;;;;;;5076499;28;20203;-72
2022/01/12 07:46:52;;;;;;;12.10;9.23;;;0.20;99.90;;;;;;5079236;28;20298;-71
2022/01/12 07:49:19;;;;;;;14.80;10.93;;;0.20;99.90;;;;;;5079346;28;20196;-71
2022/01/12 07:51:45;;;;;;;14.32;10.43;;;0.20;99.90;;;;;;5078140;28;20764;-72
2022/01/12 07:54:12;;;;;;;14.32;9.75;;;0.30;99.90;;;;;;5076425;28;20214;-72
2022/01/12 07:56:38;;;;;;;11.25;9.30;;;0.30;99.90;;;;;;5081045;28;20234;-71
2022/01/12 07:59:05;;;;;;;15.55;11.38;;;0.40;99.90;;;;;;5080914;28;20203;-71
2022/01/12 08:01:34;;;;;;;12.95;10.15;;;0.40;99.90;;;;;;5078086;28;20294;-71
2022/01/12 08:04:00;;;;;;;17.55;9.40;;;0.30;99.90;;;;;;5078505;28;20204;-71
2022/01/12 08:06:27;;;;;;;19.75;9.90;;;0.30;99.90;;;;;;5076653;28;20302;-70
2022/01/12 08:08:53;;;;;;;13.80;10.52;;;0.30;99.90;;;;;;5078208;28;20647;-70
2022/01/12 08:11:20;;;;;;;11.20;10.00;;;0.20;99.90;;;;;;5077718;28;20199;-70
2022/01/12 08:13:46;;;;;;;15.07;10.90;;;0.20;99.90;;;;;;5077418;28;20740;-71
2022/01/12 08:16:13;;;;;;;17.98;12.05;;;0.20;99.90;;;;;;5077577;28;20608;-70
2022/01/12 08:18:40;;;;;;;16.75;11.85;;;0.20;99.90;;;;;;5078577;28;20208;-71
2022/01/12 08:21:07;;;;;;;21.42;10.82;;;0.30;99.90;;;;;;5079070;28;20273;-71
2022/01/12 08:23:34;;;;;;;22.55;13.52;;;0.20;99.90;;;;;;5080993;28;20211;-70
2022/01/12 08:26:00;;;;;;;18.27;12.90;;;0.30;99.90;;;;;;5080874;28;20202;-70
2022/01/12 08:28:27;;;;;;;14.35;10.90;;;0.30;99.90;;;;;;5081186;28;20196;-71
2022/01/12 08:30:53;;;;;;;17.48;11.38;;;0.30;99.90;;;;;;5081650;28;20191;-71
2022/01/12 08:33:21;;;;;;;18.08;13.05;;;0.40;99.90;;;;;;5082294;28;20257;-71
2022/01/12 08:35:49;;;;;;;27.23;13.65;;;0.40;99.90;;;;;;5081949;28;20204;-70
2022/01/12 08:38:15;;;;;;;21.00;12.93;;;0.40;99.90;;;;;;5079555;28;20192;-71
2022/01/12 08:40:42;;;;;;;12.93;10.95;;;0.50;99.90;;;;;;5082282;28;20203;-70
2022/01/12 08:43:08;;;;;;;15.85;9.52;;;0.40;99.90;;;;;;5080922;28;20277;-70
2022/01/12 08:45:35;;;;;;;16.10;12.10;;;0.50;99.90;;;;;;5081574;28;20282;-70
2022/01/12 08:48:01;;;;;;;20.10;11.25;;;0.50;99.90;;;;;;5081701;28;20200;-70
2022/01/12 08:50:28;;;;;;;15.20;10.20;;;0.60;99.90;;;;;;5080530;28;20200;-72
2022/01/12 08:52:55;;;;;;;12.93;10.20;;;0.50;99.90;;;;;;5081427;28;20285;-70
2022/01/12 08:55:23;;;;;;;16.90;10.93;;;0.60;99.90;;;;;;5081549;28;20207;-71
2022/01/12 08:57:51;;;;;;;15.82;11.40;;;0.70;99.90;;;;;;5081538;28;20216;-70
2022/01/12 09:00:18;;;;;;;15.50;11.85;;;0.80;99.90;;;;;;5081632;28;20234;-72
2022/01/12 09:02:47;;;;;;;24.13;14.77;;;0.90;99.90;;;;;;5081183;28;20300;-70
2022/01/12 09:05:14;;;;;;;17.73;13.10;;;1.00;99.90;;;;;;5079554;28;20196;-71
2022/01/12 09:07:42;;;;;;;18.25;11.63;;;1.00;99.90;;;;;;5080772;28;20227;-71
2022/01/12 09:10:10;;;;;;;18.25;12.30;;;1.00;99.90;;;;;;5080239;28;20203;-71
2022/01/12 09:12:37;;;;;;;15.15;10.73;;;1.10;99.90;;;;;;5079754;28;20225;-71
2022/01/12 09:15:09;;;;;;;19.98;13.23;;;1.10;99.90;;;;;;5079706;28;20230;-69
2022/01/12 09:17:36;;;;;;;15.30;11.05;;;1.20;99.90;;;;;;5079718;28;20589;-70
2022/01/12 09:20:05;;;;;;;17.85;11.45;;;1.20;99.90;;;;;;5079727;28;20211;-71
2022/01/12 09:22:31;;;;;;;17.92;11.27;;;1.30;99.90;;;;;;5080322;28;20617;-72
2022/01/12 09:24:58;;;;;;;16.02;11.32;;;1.40;99.90;;;;;;5080018;28;20206;-71
2022/01/12 09:27:24;;;;;;;18.20;12.05;;;1.60;99.90;;;;;;5079802;28;20199;-71
2022/01/12 09:29:50;;;;;;;12.77;10.35;;;1.70;99.90;;;;;;5079867;28;20199;-72
2022/01/12 09:32:17;;;;;;;17.52;11.30;;;1.70;99.90;;;;;;5079190;28;20204;-72
2022/01/12 09:34:44;;;;;;;14.30;10.20;;;1.70;99.90;;;;;;5079289;28;20200;-71
2022/01/12 09:37:12;;;;;;;15.15;10.50;;;1.70;99.90;;;;;;5080137;28;20215;-72
2022/01/12 09:39:42;;;;;;;24.02;11.25;;;1.80;99.90;;;;;;5086279;28;20196;-71
2022/01/12 09:42:09;;;;;;;15.25;10.65;;;1.80;99.90;;;;;;5085394;28;20287;-71
2022/01/12 09:44:38;;;;;;;14.32;10.18;;;1.80;99.90;;;;;;5080573;28;20263;-70
2022/01/12 09:47:06;;;;;;;15.27;10.73;;;1.70;99.90;;;;;;5080664;28;20192;-71
2022/01/12 09:49:32;;;;;;;15.55;10.50;;;1.90;99.90;;;;;;5079942;28;20287;-71
2022/01/12 09:51:59;;;;;;;16.65;12.48;;;2.00;99.90;;;;;;5079420;28;20666;-71
2022/01/12 09:54:27;;;;;;;18.92;10.75;;;2.10;99.90;;;;;;5080306;28;20204;-71
2022/01/12 09:56:54;;;;;;;13.60;10.70;;;2.30;99.90;;;;;;5079963;28;20200;-72
2022/01/12 09:59:22;;;;;;;17.00;11.55;;;2.20;99.90;;;;;;5081827;28;20261;-71
2022/01/12 10:01:49;;;;;;;20.17;13.15;;;2.20;99.90;;;;;;5078422;28;20705;-72
2022/01/12 10:04:18;;;;;;;13.70;10.10;;;2.30;99.90;;;;;;5077787;28;20294;-71
2022/01/12 10:07:06;;;;;;;14.90;11.77;;;2.20;99.90;;;;;;5076457;28;20288;-70
2022/01/12 10:09:38;;;;;;;13.48;10.77;;;2.30;99.90;;;;;;5077279;28;20210;-70
2022/01/12 10:12:13;;;;;;;16.55;11.23;;;2.40;99.90;;;;;;5078460;28;20234;-70
2022/01/12 10:14:44;;;;;;;15.60;11.23;;;2.30;99.90;;;;;;5076093;28;20203;-71
2022/01/12 10:17:13;;;;;;;14.82;11.52;;;2.20;99.90;;;;;;5078027;28;20241;-71
2022/01/12 10:19:40;;;;;;;20.77;12.60;;;2.20;99.90;;;;;;5079985;28;20695;-71
2022/01/12 10:22:10;;;;;;;13.40;11.75;;;2.40;99.90;;;;;;5079585;28;20222;-72
2022/01/12 10:24:41;;;;;;;17.92;12.18;;;2.60;99.90;;;;;;5079250;28;20208;-71
2022/01/12 10:27:16;;;;;;;20.48;12.38;;;2.70;99.90;;;;;;5079737;28;20199;-70
2022/01/12 10:29:44;;;;;;;15.57;12.35;;;2.80;99.90;;;;;;5079324;28;20253;-71
2022/01/12 10:32:16;;;;;;;18.67;11.65;;;3.00;99.90;;;;;;5077281;28;20785;-70
2022/01/12 10:34:45;;;;;;;14.45;10.88;;;3.00;99.90;;;;;;5077329;28;20195;-71
2022/01/12 10:37:22;;;;;;;14.90;11.85;;;3.00;99.90;;;;;;5078619;28;20200;-71
2022/01/12 10:39:50;;;;;;;14.68;11.18;;;3.20;99.90;;;;;;5078673;28;20210;-71
2022/01/12 10:42:24;;;;;;;21.30;11.63;;;3.10;99.90;;;;;;5078409;28;20277;-71
2022/01/12 10:44:53;;;;;;;16.25;11.27;;;3.20;99.90;;;;;;5077814;28;20200;-71
2022/01/12 10:47:29;;;;;;;16.33;10.57;;;3.40;99.90;;;;;;5077236;28;20200;-71
2022/01/12 10:49:56;;;;;;;20.80;10.48;;;3.40;99.90;;;;;;5077840;28;20539;-70
2022/01/12 10:52:34;;;;;;;16.90;11.25;;;3.50;99.90;;;;;;5077322;28;20361;-71
2022/01/12 10:55:09;;;;;;;14.52;10.85;;;3.70;99.90;;;;;;5077104;28;20203;-70
2022/01/12 10:57:42;;;;;;;15.27;11.30;;;4.10;99.90;;;;;;5077409;28;20199;-72
2022/01/12 11:00:22;;;;;;;12.18;10.23;;;4.40;99.90;;;;;;5077726;28;20196;-72
2022/01/12 11:02:54;;;;;;;14.35;10.43;;;4.50;99.90;;;;;;5077062;28;20219;-70
2022/01/12 11:05:26;;;;;;;13.98;9.98;;;4.80;99.90;;;;;;5077087;28;20204;-70
2022/01/12 11:07:53;;;;;;;11.25;8.70;;;4.80;99.90;;;;;;5076716;28;20223;-70
2022/01/12 11:10:21;;;;;;;8.65;7.82;;;5.00;99.90;;;;;;5074796;28;20200;-71
2022/01/12 11:12:49;;;;;;;17.58;11.38;;;5.00;99.90;;;;;;5076874;28;20781;-71
2022/01/12 11:15:20;;;;;;;15.95;8.50;;;5.20;99.90;;;;;;5076225;28;20180;-71
2022/01/12 11:17:49;;;;;;;15.25;9.63;;;5.60;99.90;;;;;;5078913;28;20569;-72
2022/01/12 11:20:27;;;;;;;11.10;10.00;;;5.30;99.90;;;;;;5078042;28;20267;-72
2022/01/12 11:23:01;;;;;;;17.33;9.93;;;5.70;99.90;;;;;;5061460;28;20223;-71
2022/01/12 11:25:40;;;;;;;13.32;8.98;;;6.00;99.90;;;;;;5078629;28;20631;-72
2022/01/12 11:28:25;;;;;;;16.50;12.10;;;6.10;99.90;;;;;;5076699;28;20244;-72
2022/01/12 11:30:51;;;;;;;16.02;10.93;;;6.30;99.90;;;;;;5077984;28;20183;-71
2022/01/12 11:33:33;;;;;;;13.75;11.18;;;6.20;99.90;;;;;;5077291;28;20212;-72
2022/01/12 11:36:10;;;;;;;11.68;10.50;;;6.00;99.90;;;;;;5076884;28;20619;-72
2022/01/12 11:38:39;;;;;;;35.63;12.35;;;6.20;99.90;;;;;;5076892;28;20188;-71
2022/01/12 11:41:13;;;;;;;13.82;9.93;;;6.40;99.90;;;;;;5076618;28;20204;-71
2022/01/12 11:43:53;;;;;;;14.20;10.30;;;6.30;99.90;;;;;;5076066;28;20216;-72
2022/01/12 11:46:25;;;;;;;12.55;11.27;;;6.40;99.90;;;;;;5076329;28;20237;-71
2022/01/12 11:48:57;;;;;;;11.20;10.10;;;6.00;99.90;;;;;;5074715;28;20567;-72
2022/01/12 11:51:44;;;;;;;9.95;9.05;;;6.10;99.90;;;;;;5077466;28;20207;-72
2022/01/12 11:54:16;;;;;;;11.35;10.35;;;6.30;99.90;;;;;;5079098;28;20286;-72
2022/01/12 11:57:01;;;;;;;12.32;11.20;;;6.10;99.90;;;;;;5075548;28;20195;-71
2022/01/12 11:59:30;;;;;;;11.43;9.77;;;6.10;99.90;;;;;;5076410;28;20195;-71
2022/01/12 12:02:09;;;;;;;13.63;10.93;;;6.20;99.90;;;;;;5076331;28;20269;-71
2022/01/12 12:04:36;;;;;;;33.40;12.50;;;6.10;99.90;;;;;;5076459;28;20214;-71
2022/01/12 12:07:12;;;;;;;19.08;11.65;;;6.20;99.90;;;;;;5076481;28;20751;-71
2022/01/12 12:09:43;;;;;;;11.32;10.13;;;6.50;99.90;;;;;;5076140;28;20659;-70
2022/01/12 12:12:16;;;;;;;10.75;9.60;;;6.70;99.90;;;;;;5076920;28;20196;-70
2022/01/12 12:14:48;;;;;;;10.70;9.57;;;6.80;99.90;;;;;;5077819;28;20287;-70
2022/01/12 12:17:17;;;;;;;10.60;9.60;;;6.90;99.90;;;;;;5075639;28;20200;-70
2022/01/12 12:19:45;;;;;;;14.05;10.57;;;7.10;99.90;;;;;;5077469;28;20279;-71
2022/01/12 12:22:15;;;;;;;10.27;9.38;;;7.30;99.90;;;;;;5076864;28;20207;-71
2022/01/12 12:24:44;;;;;;;11.48;10.38;;;7.40;99.90;;;;;;5074835;28;20208;-71
2022/01/12 12:27:16;;;;;;;10.00;8.82;;;7.40;99.90;;;;;;5076086;28;20730;-72
2022/01/12 12:29:44;;;;;;;14.23;10.60;;;7.30;99.90;;;;;;5076627;28;20184;-72
2022/01/12 12:32:13;;;;;;;11.25;10.05;;;6.90;99.90;;;;;;5077269;28;20196;-71
2022/01/12 12:34:41;;;;;;;11.35;10.25;;;7.20;99.90;;;;;;5076841;28;20206;-72
2022/01/12 12:37:12;;;;;;;11.27;9.95;;;7.50;99.90;;;;;;5076656;28;20207;-71
2022/01/12 12:39:41;;;;;;;12.75;9.77;;;7.50;99.90;;;;;;5077116;28;20279;-71
2022/01/12 12:42:19;;;;;;;9.35;8.55;;;7.40;99.90;;;;;;5075993;28;20207;-71
2022/01/12 12:44:47;;;;;;;13.27;10.55;;;7.80;99.90;;;;;;5075766;28;20240;-71
2022/01/12 12:47:19;;;;;;;11.80;10.60;;;7.80;99.90;;;;;;5074455;28;20203;-72
2022/01/12 12:49:57;;;;;;;12.45;11.25;;;7.80;99.90;;;;;;5075339;28;20204;-71
2022/01/12 12:52:39;;;;;;;12.80;11.32;;;7.80;99.90;;;;;;5078085;28;20231;-71
2022/01/12 12:55:16;;;;;;;17.52;12.45;;;7.80;99.90;;;;;;5077985;28;20344;-72
2022/01/12 12:57:51;;;;;;;12.57;11.35;;;7.50;99.90;;;;;;5078128;28;20242;-71
2022/01/12 13:00:21;;;;;;;9.85;9.05;;;7.70;99.90;;;;;;5075149;28;20710;-72
2022/01/12 13:02:51;;;;;;;11.57;10.35;;;7.70;99.90;;;;;;5079364;28;20216;-72
2022/01/12 13:05:21;;;;;;;10.98;9.98;;;7.70;99.90;;;;;;5079540;28;20207;-72
2022/01/12 13:07:49;;;;;;;11.20;10.30;;;7.80;99.90;;;;;;5061067;28;20275;-72
2022/01/12 13:10:26;;;;;;;14.55;13.10;;;7.50;99.90;;;;;;5079426;28;20526;-72
2022/01/12 13:12:59;;;;;;;11.60;10.60;;;8.10;99.90;;;;;;5078590;28;20634;-72
2022/01/12 13:15:32;;;;;;;11.30;10.32;;;8.00;99.90;;;;;;5079217;28;20196;-72
2022/01/12 13:17:58;;;;;;;11.80;10.63;;;8.40;99.90;;;;;;5083372;28;20203;-72
2022/01/12 13:23:04;;;;;;;9.73;8.93;;;8.60;99.90;;;;;;5077363;28;20224;-73
2022/01/12 13:25:31;;;;;;;10.73;9.93;;;8.90;99.90;;;;;;5078034;28;20199;-71
2022/01/12 13:28:00;;;;;;;13.77;9.85;;;8.20;99.90;;;;;;5077421;28;20196;-71
2022/01/12 13:30:30;;;;;;;12.25;10.40;;;7.80;99.90;;;;;;5077159;28;20208;-72
2022/01/12 13:32:59;;;;;;;11.10;10.00;;;7.80;99.90;;;;;;5078670;28;20218;-70
2022/01/12 13:35:35;;;;;;;48.08;31.20;;;7.10;99.90;;;;;;5080670;28;20211;-71
2022/01/12 13:38:05;;;;;;;13.82;10.90;;;6.80;99.90;;;;;;5076986;28;20207;-70
2022/01/12 13:40:36;;;;;;;10.68;9.68;;;6.30;99.90;;;;;;5058983;28;20743;-71
2022/01/12 13:43:04;;;;;;;10.25;9.25;;;5.90;99.90;;;;;;5057239;28;20215;-72
2022/01/12 13:45:45;;;;;;;11.40;10.30;;;5.70;99.90;;;;;;5056524;28;20264;-71
2022/01/12 13:48:18;;;;;;;11.23;10.10;;;5.50;99.90;;;;;;5062128;28;20229;-70
2022/01/12 13:50:52;;;;;;;11.45;10.32;;;5.30;99.90;;;;;;5058699;28;20215;-70
2022/01/12 13:53:29;;;;;;;11.10;10.10;;;4.90;99.90;;;;;;5058039;28;20228;-70
2022/01/12 13:55:56;;;;;;;10.80;9.70;;;4.90;99.90;;;;;;5055436;28;20211;-71
2022/01/12 13:58:27;;;;;;;11.10;10.00;;;5.00;99.90;;;;;;5054949;28;20679;-73
2022/01/12 14:01:11;;;;;;;14.40;9.88;;;5.00;99.90;;;;;;5056811;28;20266;-72
2022/01/12 14:03:44;;;;;;;10.15;8.70;;;5.00;99.90;;;;;;5056555;28;20220;-72
2022/01/12 14:06:25;;;;;;;9.63;8.73;;;5.00;99.90;;;;;;5056186;28;20213;-72
2022/01/12 14:08:57;;;;;;;13.43;9.45;;;4.90;99.90;;;;;;5057144;28;20207;-72
2022/01/12 14:11:37;;;;;;;10.75;9.75;;;5.10;99.90;;;;;;5056442;28;20200;-72
2022/01/12 14:14:05;;;;;;;10.57;9.45;;;5.10;99.90;;;;;;5058522;28;20260;-72
2022/01/12 14:16:37;;;;;;;12.95;8.60;;;5.10;99.90;;;;;;5060215;28;20208;-72
2022/01/12 14:19:04;;;;;;;11.40;9.13;;;5.20;99.90;;;;;;5057780;28;20200;-71
2022/01/12 14:21:30;;;;;;;13.43;9.52;;;5.60;99.90;;;;;;5061045;28;20226;-72
2022/01/12 14:23:57;;;;;;;11.52;8.90;;;6.10;99.90;;;;;;5057584;28;20223;-71